createdAt,value
2023-05-02T00:00:03.348Z,454.9167
2023-05-02T00:01:07.374Z,456.1667
2023-05-02T00:02:11.439Z,445.5000
2023-05-02T00:03:15.408Z,447.1667
2023-05-02T00:04:19.383Z,445.6667
2023-05-02T00:05:23.550Z,449.4167
2023-05-02T00:06:27.504Z,449.5833
2023-05-02T00:07:31.419Z,453.5833
2023-05-02T00:08:35.330Z,455.8333
2023-05-02T00:09:39.240Z,459.7500
2023-05-02T00:10:43.140Z,453.9167
2023-05-02T00:11:47.039Z,447.9167
2023-05-02T00:12:50.938Z,449.0000
2023-05-02T00:13:54.824Z,453.0833
2023-05-02T00:14:59.490Z,464.9167
2023-05-02T00:16:03.380Z,464.4167
2023-05-02T00:17:07.338Z,459.2500
2023-05-02T00:18:11.252Z,458.2500
2023-05-02T00:19:15.150Z,459.0000
2023-05-02T00:20:19.131Z,458.5833
2023-05-02T00:21:23.034Z,454.7500
2023-05-02T00:22:26.921Z,455.5000
2023-05-02T00:23:30.814Z,451.4167
2023-05-02T00:24:34.700Z,449.0833
2023-05-02T00:25:38.596Z,452.5000
2023-05-02T00:26:42.475Z,455.0833
2023-05-02T00:27:46.378Z,457.7500
2023-05-02T00:28:50.272Z,465.2500
2023-05-02T00:29:50.732Z,463.7273
2023-05-02T00:30:54.647Z,453.8333
2023-05-02T00:31:58.556Z,455.5833
2023-05-02T00:33:02.493Z,456.0833
2023-05-02T00:34:06.358Z,456.9167
2023-05-02T00:35:10.257Z,454.0000
2023-05-02T00:36:14.152Z,453.5833
2023-05-02T00:37:18.060Z,453.1667
2023-05-02T00:38:21.934Z,453.4167
2023-05-02T00:39:25.822Z,451.0000
2023-05-02T00:40:29.810Z,449.2500
2023-05-02T00:41:33.692Z,459.0000
2023-05-02T00:42:37.606Z,450.8333
2023-05-02T00:43:41.510Z,448.9167
2023-05-02T00:44:45.407Z,454.0000
2023-05-02T00:45:49.325Z,458.2500
2023-05-02T00:46:53.386Z,457.5833
2023-05-02T00:47:57.385Z,451.4167
2023-05-02T00:49:01.319Z,452.1667
2023-05-02T00:50:05.272Z,448.5833
2023-05-02T00:51:09.165Z,450.2500
2023-05-02T00:52:13.047Z,451.6667
2023-05-02T00:53:16.964Z,457.4167
2023-05-02T00:54:20.873Z,460.1667
2023-05-02T00:55:24.791Z,459.1667
2023-05-02T00:56:28.692Z,456.4167
2023-05-02T00:57:32.601Z,452.0000
2023-05-02T00:58:36.512Z,455.0833
2023-05-02T00:59:40.444Z,448.9167
2023-05-02T01:00:44.330Z,448.9167
2023-05-02T01:01:48.286Z,448.3333
2023-05-02T01:02:52.319Z,447.7500
2023-05-02T01:03:56.350Z,450.0833
2023-05-02T01:05:00.254Z,453.8333
2023-05-02T01:06:04.254Z,456.9167
2023-05-02T01:07:08.102Z,451.9167
2023-05-02T01:08:12.127Z,458.3333
2023-05-02T01:09:16.002Z,456.4167
2023-05-02T01:10:19.899Z,453.1667
2023-05-02T01:11:23.812Z,459.9167
2023-05-02T01:12:27.708Z,461.9167
2023-05-02T01:13:31.626Z,459.6667
2023-05-02T01:14:35.520Z,453.6667
2023-05-02T01:15:39.453Z,454.5833
2023-05-02T01:16:43.408Z,452.8333
2023-05-02T01:17:47.338Z,452.8333
2023-05-02T01:18:51.219Z,456.0000
2023-05-02T01:19:55.107Z,476.8333
2023-05-02T01:20:59.001Z,460.4167
2023-05-02T01:22:02.958Z,452.5833
2023-05-02T01:23:07.206Z,452.0833
2023-05-02T01:24:11.103Z,446.5000
2023-05-02T01:25:15.010Z,454.6667
2023-05-02T01:26:18.913Z,452.6667
2023-05-02T01:27:22.831Z,491.2500
2023-05-02T01:28:26.747Z,459.7500
2023-05-02T01:29:30.658Z,457.0000
2023-05-02T01:30:34.568Z,456.6667
2023-05-02T01:31:38.593Z,460.8333
2023-05-02T01:32:42.783Z,468.5833
2023-05-02T01:33:46.667Z,464.5000
2023-05-02T01:34:50.565Z,453.0000
2023-05-02T01:35:54.525Z,453.2500
2023-05-02T01:36:58.416Z,457.5833
2023-05-02T01:38:02.333Z,459.0833
2023-05-02T01:39:06.212Z,457.5833
2023-05-02T01:40:10.133Z,458.0000
2023-05-02T01:41:14.023Z,459.1667
2023-05-02T01:42:17.942Z,461.8333
2023-05-02T01:43:21.856Z,461.0000
2023-05-02T01:44:25.729Z,447.9167
2023-05-02T01:45:29.622Z,452.2500
2023-05-02T01:46:33.577Z,459.0833
2023-05-02T01:47:37.512Z,456.2500
2023-05-02T01:48:41.416Z,458.0833
2023-05-02T01:49:45.316Z,459.7500
2023-05-02T01:50:49.239Z,459.2500
2023-05-02T01:51:53.162Z,455.5833
2023-05-02T01:52:57.093Z,454.5000
2023-05-02T01:54:00.968Z,455.0833
2023-05-02T01:55:04.866Z,452.9167
2023-05-02T01:56:08.748Z,451.3333
2023-05-02T01:57:12.650Z,450.9167
2023-05-02T01:58:16.771Z,452.8333
2023-05-02T01:59:20.649Z,453.4167
2023-05-02T02:00:24.783Z,453.9167
2023-05-02T02:01:28.699Z,451.2500
2023-05-02T02:02:32.586Z,454.4167
2023-05-02T02:03:36.578Z,451.7500
2023-05-02T02:04:40.628Z,453.6667
2023-05-02T02:05:41.605Z,467.5000
2023-05-02T02:06:45.624Z,460.7500
2023-05-02T02:07:49.896Z,457.3333
2023-05-02T02:08:53.782Z,457.5833
2023-05-02T02:09:57.805Z,461.0000
2023-05-02T02:11:01.795Z,460.2500
2023-05-02T02:12:05.712Z,456.5000
2023-05-02T02:13:09.624Z,453.0833
2023-05-02T02:14:13.536Z,450.6667
2023-05-02T02:15:17.444Z,448.2500
2023-05-02T02:16:21.416Z,450.7500
2023-05-02T02:17:25.676Z,452.6667
2023-05-02T02:18:29.851Z,454.1667
2023-05-02T02:19:33.746Z,449.4167
2023-05-02T02:20:37.644Z,451.6667
2023-05-02T02:21:41.519Z,452.6667
2023-05-02T02:22:45.646Z,453.5000
2023-05-02T02:23:49.563Z,456.2500
2023-05-02T02:24:54.405Z,455.5000
2023-05-02T02:25:58.495Z,453.6667
2023-05-02T02:27:02.388Z,456.2500
2023-05-02T02:28:06.280Z,453.7500
2023-05-02T02:29:10.184Z,454.2500
2023-05-02T02:30:14.119Z,452.8333
2023-05-02T02:31:18.093Z,457.4167
2023-05-02T02:32:21.956Z,460.0833
2023-05-02T02:33:25.840Z,454.0833
2023-05-02T02:34:29.726Z,451.4167
2023-05-02T02:35:33.615Z,450.9167
2023-05-02T02:36:37.521Z,451.0000
2023-05-02T02:37:41.404Z,451.0000
2023-05-02T02:38:45.291Z,450.0000
2023-05-02T02:39:49.174Z,442.0000
2023-05-02T02:40:53.051Z,447.1667
2023-05-02T02:41:56.937Z,456.5000
2023-05-02T02:43:00.848Z,460.8333
2023-05-02T02:44:04.726Z,458.5000
2023-05-02T02:45:09.570Z,516.8333
2023-05-02T02:46:13.489Z,465.0000
2023-05-02T02:47:17.350Z,462.9167
2023-05-02T02:48:21.233Z,465.0000
2023-05-02T02:49:25.147Z,461.5833
2023-05-02T02:50:29.025Z,459.0833
2023-05-02T02:51:32.961Z,453.4167
2023-05-02T02:52:37.095Z,449.1667
2023-05-02T02:53:41.001Z,449.0000
2023-05-02T02:54:44.928Z,453.7500
2023-05-02T02:55:49.593Z,458.4167
2023-05-02T02:56:53.485Z,460.5000
2023-05-02T02:57:57.378Z,462.4167
2023-05-02T02:59:01.272Z,457.2500
2023-05-02T03:00:05.390Z,451.8333
2023-05-02T03:01:09.300Z,448.2500
2023-05-02T03:02:13.221Z,451.3333
2023-05-02T03:03:17.169Z,431.0000
2023-05-02T03:04:21.155Z,441.3333
2023-05-02T03:05:25.667Z,447.5000
2023-05-02T03:06:29.627Z,444.5833
2023-05-02T03:07:33.626Z,450.9167
2023-05-02T03:08:37.544Z,458.8333
2023-05-02T03:09:41.454Z,457.0000
2023-05-02T03:10:45.354Z,460.0000
2023-05-02T03:11:49.267Z,462.4167
2023-05-02T03:12:53.188Z,453.5833
2023-05-02T03:13:57.097Z,458.9167
2023-05-02T03:15:01.259Z,460.7500
2023-05-02T03:16:05.181Z,464.1667
2023-05-02T03:17:09.172Z,468.7500
2023-05-02T03:18:13.083Z,470.4167
2023-05-02T03:19:17.279Z,467.5000
2023-05-02T03:20:21.167Z,457.0000
2023-05-02T03:21:25.069Z,448.0000
2023-05-02T03:22:28.954Z,456.1667
2023-05-02T03:23:32.835Z,461.9167
2023-05-02T03:24:36.710Z,459.3333
2023-05-02T03:25:40.614Z,455.0833
2023-05-02T03:26:44.514Z,462.2500
2023-05-02T03:27:48.405Z,461.5833
2023-05-02T03:28:52.396Z,478.7500
2023-05-02T03:29:56.300Z,475.0833
2023-05-02T03:31:00.326Z,415.3333
2023-05-02T03:32:04.407Z,432.0833
2023-05-02T03:33:08.417Z,443.4167
2023-05-02T03:34:12.305Z,450.0833
2023-05-02T03:35:16.196Z,456.5833
2023-05-02T03:36:20.090Z,463.0000
2023-05-02T03:37:24.003Z,466.6667
2023-05-02T03:38:27.913Z,459.5833
2023-05-02T03:39:31.824Z,458.5000
2023-05-02T03:40:35.713Z,454.5833
2023-05-02T03:41:39.595Z,457.4167
2023-05-02T03:42:43.493Z,460.9167
2023-05-02T03:43:47.376Z,460.5000
2023-05-02T03:44:51.276Z,454.6667
2023-05-02T03:45:55.154Z,453.5000
2023-05-02T03:46:59.125Z,456.8333
2023-05-02T03:48:03.135Z,458.3333
2023-05-02T03:49:07.003Z,461.9167
2023-05-02T03:50:07.411Z,463.1818
2023-05-02T03:51:11.308Z,457.0000
2023-05-02T03:52:15.198Z,452.5000
2023-05-02T03:53:19.094Z,449.4167
2023-05-02T03:54:22.984Z,456.0833
2023-05-02T03:55:26.878Z,470.6667
2023-05-02T03:56:30.749Z,470.6667
2023-05-02T03:57:34.690Z,462.7500
2023-05-02T03:58:38.546Z,459.7500
2023-05-02T03:59:42.419Z,461.1667
2023-05-02T04:00:46.316Z,465.2500
2023-05-02T04:01:50.318Z,459.3333
2023-05-02T04:02:54.548Z,461.1667
2023-05-02T04:03:58.512Z,443.9167
2023-05-02T04:05:02.391Z,451.3333
2023-05-02T04:06:06.285Z,451.0833
2023-05-02T04:07:10.170Z,449.5833
2023-05-02T04:08:14.044Z,455.9167
2023-05-02T04:09:17.929Z,462.7500
2023-05-02T04:10:21.824Z,460.8333
2023-05-02T04:11:25.790Z,454.4167
2023-05-02T04:12:29.632Z,451.6667
2023-05-02T04:13:33.523Z,450.0000
2023-05-02T04:14:37.442Z,454.1667
2023-05-02T04:15:41.351Z,458.5833
2023-05-02T04:16:45.302Z,493.4167
2023-05-02T04:17:49.264Z,463.6667
2023-05-02T04:18:53.146Z,458.2500
2023-05-02T04:19:57.037Z,460.1667
2023-05-02T04:21:00.941Z,464.0000
2023-05-02T04:22:04.869Z,466.1667
2023-05-02T04:23:04.965Z,465.6364
2023-05-02T04:24:08.872Z,462.3333
2023-05-02T04:25:12.780Z,458.6667
2023-05-02T04:26:16.689Z,453.8333
2023-05-02T04:27:20.586Z,458.3333
2023-05-02T04:28:24.531Z,457.3333
2023-05-02T04:29:28.421Z,455.1667
2023-05-02T04:30:32.325Z,461.4167
2023-05-02T04:31:36.276Z,457.6667
2023-05-02T04:32:40.277Z,456.0000
2023-05-02T04:33:44.185Z,459.5000
2023-05-02T04:34:48.051Z,462.1667
2023-05-02T04:35:52.213Z,462.3333
2023-05-02T04:36:56.117Z,463.5000
2023-05-02T04:38:00.256Z,463.3333
2023-05-02T04:39:04.173Z,462.2500
2023-05-02T04:40:08.109Z,460.0833
2023-05-02T04:41:12.007Z,460.5833
2023-05-02T04:42:15.914Z,467.5000
2023-05-02T04:43:19.822Z,462.6667
2023-05-02T04:44:23.735Z,460.7500
2023-05-02T04:45:27.873Z,459.4167
2023-05-02T04:46:31.886Z,460.5000
2023-05-02T04:47:35.824Z,462.0833
2023-05-02T04:48:39.723Z,461.2500
2023-05-02T04:49:43.621Z,458.4167
2023-05-02T04:50:47.509Z,455.1667
2023-05-02T04:51:51.407Z,451.3333
2023-05-02T04:52:55.317Z,453.3333
2023-05-02T04:53:59.235Z,456.9167
2023-05-02T04:55:03.133Z,466.0000
2023-05-02T04:56:07.013Z,459.1667
2023-05-02T04:57:11.040Z,455.6667
2023-05-02T04:58:14.964Z,458.3333
2023-05-02T04:59:18.866Z,460.5000
2023-05-02T05:00:19.268Z,461.7273
2023-05-02T05:01:23.180Z,466.1667
2023-05-02T05:02:27.302Z,457.6667
2023-05-02T05:03:31.338Z,457.0000
2023-05-02T05:04:35.232Z,459.2500
2023-05-02T05:05:39.254Z,460.4167
2023-05-02T05:06:43.259Z,461.8333
2023-05-02T05:07:47.125Z,458.5833
2023-05-02T05:08:51.011Z,506.0833
2023-05-02T05:09:54.940Z,483.6667
2023-05-02T05:10:59.125Z,466.5833
2023-05-02T05:12:03.037Z,464.2500
2023-05-02T05:13:07.183Z,464.4167
2023-05-02T05:14:11.111Z,464.3333
2023-05-02T05:15:15.008Z,458.2500
2023-05-02T05:16:18.981Z,454.3333
2023-05-02T05:17:22.920Z,454.0833
2023-05-02T05:18:26.793Z,456.5833
2023-05-02T05:19:30.681Z,456.8333
2023-05-02T05:20:34.562Z,457.2500
2023-05-02T05:23:09.552Z,597.9167
2023-05-02T05:24:11.308Z,540.3846
2023-05-02T05:25:13.017Z,535.0769
2023-05-02T05:26:14.720Z,532.0000
2023-05-02T05:27:16.481Z,534.8461
2023-05-02T05:28:18.187Z,525.3077
2023-05-02T05:29:19.900Z,532.9231
2023-05-02T05:30:21.627Z,544.4615
2023-05-02T05:31:23.348Z,545.7692
2023-05-02T05:32:25.109Z,550.6923
2023-05-02T05:33:26.907Z,566.6923
2023-05-02T05:34:28.530Z,562.3846
2023-05-02T05:35:30.248Z,546.0000
2023-05-02T05:36:31.937Z,557.4615
2023-05-02T05:37:33.653Z,543.3846
2023-05-02T05:38:35.377Z,538.6154
2023-05-02T05:39:37.111Z,546.0000
2023-05-02T05:40:38.820Z,537.3077
2023-05-02T05:41:40.542Z,552.8461
2023-05-02T05:42:42.261Z,552.3077
2023-05-02T05:43:43.970Z,546.3077
2023-05-02T05:44:45.736Z,545.8461
2023-05-02T05:45:47.440Z,551.3846
2023-05-02T05:46:50.024Z,560.0000
2023-05-02T05:47:50.921Z,557.4615
2023-05-02T05:48:52.603Z,554.6154
2023-05-02T05:49:54.321Z,551.9231
2023-05-02T05:50:56.031Z,547.3846
2023-05-02T05:51:57.762Z,542.7692
2023-05-02T05:52:59.482Z,543.7692
2023-05-02T05:54:01.191Z,548.9231
2023-05-02T05:55:02.885Z,543.3077
2023-05-02T05:56:04.609Z,528.0769
2023-05-02T05:57:06.339Z,586.4615
2023-05-02T05:58:08.060Z,553.5385
2023-05-02T05:59:09.784Z,546.0000
2023-05-02T06:00:11.503Z,545.7692
2023-05-02T06:01:13.215Z,550.3846
2023-05-02T06:02:15.001Z,547.8461
2023-05-02T06:03:16.705Z,545.0769
2023-05-02T06:04:18.367Z,536.0000
2023-05-02T06:05:20.105Z,533.3077
2023-05-02T06:06:21.894Z,539.2308
2023-05-02T06:07:23.533Z,544.9231
2023-05-02T06:08:25.264Z,546.2308
2023-05-02T06:09:26.979Z,543.6154
2023-05-02T06:10:28.787Z,543.0769
2023-05-02T06:11:30.415Z,542.6923
2023-05-02T06:12:32.139Z,542.6923
2023-05-02T06:13:33.854Z,558.2308
2023-05-02T06:14:35.586Z,557.0000
2023-05-02T06:15:37.365Z,550.6154
2023-05-02T06:16:39.128Z,554.2308
2023-05-02T06:17:40.747Z,536.8461
2023-05-02T06:18:42.428Z,521.2308
2023-05-02T06:19:44.151Z,529.3077
2023-05-02T06:20:45.892Z,539.3077
2023-05-02T06:21:47.619Z,540.6154
2023-05-02T06:22:49.338Z,547.5385
2023-05-02T06:23:51.053Z,542.4615
2023-05-02T06:24:52.768Z,538.0769
2023-05-02T06:25:54.494Z,539.6923
2023-05-02T06:26:56.231Z,528.6923
2023-05-02T06:27:57.939Z,542.5385
2023-05-02T06:28:59.664Z,571.5385
2023-05-02T06:30:01.623Z,556.4615
2023-05-02T06:31:03.190Z,538.8461
2023-05-02T06:32:04.874Z,724.0769
2023-05-02T06:33:06.584Z,1246.4615
2023-05-02T06:34:08.246Z,1422.5385
2023-05-02T06:35:09.992Z,1503.5385
2023-05-02T06:36:11.661Z,1540.0000
2023-05-02T06:37:13.391Z,1535.0769
2023-05-02T06:38:15.106Z,1495.6154
2023-05-02T06:39:16.827Z,1508.0000
2023-05-02T06:40:18.537Z,1517.6923
2023-05-02T06:41:20.299Z,1508.1538
2023-05-02T06:42:21.986Z,1509.8462
2023-05-02T06:43:23.710Z,1497.9231
2023-05-02T06:44:25.469Z,1473.2307
2023-05-02T06:45:27.165Z,1479.3846
2023-05-02T06:46:28.895Z,1498.1538
2023-05-02T06:47:30.701Z,1502.6923
2023-05-02T06:48:32.319Z,1510.3077
2023-05-02T06:49:34.032Z,1498.3846
2023-05-02T06:50:35.775Z,1499.1538
2023-05-02T06:51:37.503Z,1484.5385
2023-05-02T06:52:39.205Z,1473.3077
2023-05-02T06:53:40.970Z,1470.5385
2023-05-02T06:54:42.659Z,1481.9231
2023-05-02T06:55:44.379Z,1495.0000
2023-05-02T06:56:46.111Z,1494.3077
2023-05-02T06:57:47.822Z,1468.3846
2023-05-02T06:58:49.556Z,1476.4615
2023-05-02T06:59:51.308Z,1491.3846
2023-05-02T07:00:53.005Z,1470.6923
2023-05-02T07:01:54.717Z,1514.3846
2023-05-02T07:02:56.487Z,1504.6154
2023-05-02T07:03:58.196Z,1478.9231
2023-05-02T07:04:59.883Z,1465.2307
2023-05-02T07:06:01.684Z,1457.0000
2023-05-02T07:07:03.333Z,1457.7693
2023-05-02T07:08:05.053Z,1451.6923
2023-05-02T07:09:06.784Z,1514.8462
2023-05-02T07:10:08.505Z,1496.7693
2023-05-02T07:11:10.241Z,1455.5385
2023-05-02T07:12:11.935Z,1442.5385
2023-05-02T07:13:13.653Z,1451.7693
2023-05-02T07:14:15.378Z,1448.6154
2023-05-02T07:15:17.065Z,1442.7693
2023-05-02T07:16:18.846Z,1490.0769
2023-05-02T07:17:20.540Z,1419.2307
2023-05-02T07:18:22.236Z,1422.4615
2023-05-02T07:19:23.954Z,1427.5385
2023-05-02T07:20:25.743Z,1427.7693
2023-05-02T07:21:27.419Z,1350.0000
2023-05-02T07:22:29.115Z,809.3077
2023-05-02T07:23:30.847Z,562.6923
2023-05-02T07:24:32.568Z,488.6923
2023-05-02T07:25:34.279Z,487.3846
2023-05-02T07:26:35.996Z,469.5385
2023-05-02T07:27:37.742Z,472.0000
2023-05-02T07:28:39.453Z,426.9231
2023-05-02T07:29:41.183Z,438.1538
2023-05-02T07:30:42.891Z,464.5385
2023-05-02T07:31:44.668Z,477.2308
2023-05-02T07:32:46.393Z,455.0769
2023-05-02T07:33:48.065Z,451.0000
2023-05-02T07:34:49.758Z,451.6154
2023-05-02T07:35:51.485Z,467.8462
2023-05-02T07:36:53.203Z,490.2308
2023-05-02T07:37:54.997Z,494.0000
2023-05-02T07:38:57.448Z,511.6667
2023-05-02T07:40:01.598Z,510.9167
2023-05-02T07:41:05.779Z,443.6667
2023-05-02T07:42:09.674Z,469.2500
2023-05-02T07:43:13.563Z,449.0833
2023-05-02T07:44:17.438Z,463.0000
2023-05-02T07:45:21.492Z,449.8333
2023-05-02T07:46:25.554Z,435.0833
2023-05-02T07:47:33.434Z,513.7500
2023-05-02T07:48:32.029Z,499.9091
2023-05-02T07:49:35.907Z,465.0833
2023-05-02T07:50:39.823Z,483.4167
2023-05-02T07:51:44.581Z,446.5833
2023-05-02T07:52:48.875Z,417.2500
2023-05-02T07:53:52.278Z,432.4546
2023-05-02T07:54:56.181Z,450.5000
2023-05-02T07:56:00.134Z,475.3333
2023-05-02T07:57:04.148Z,466.3333
2023-05-02T07:58:08.041Z,463.1667
2023-05-02T07:59:12.176Z,446.6667
2023-05-02T08:00:16.135Z,448.6667
2023-05-02T08:01:20.027Z,467.6667
2023-05-02T08:02:25.852Z,498.6667
2023-05-02T08:03:24.800Z,490.0909
2023-05-02T08:04:30.610Z,472.2500
2023-05-02T08:05:29.297Z,461.6364
2023-05-02T08:06:33.252Z,458.6667
2023-05-02T08:07:37.390Z,445.5833
2023-05-02T08:08:41.330Z,478.4167
2023-05-02T08:09:45.243Z,488.1667
2023-05-02T08:10:49.281Z,466.5000
2023-05-02T08:11:53.178Z,478.8333
2023-05-02T08:12:59.384Z,491.0000
2023-05-02T08:13:58.490Z,483.5454
2023-05-02T08:14:58.916Z,489.8182
2023-05-02T08:16:02.914Z,455.4167
2023-05-02T08:17:06.790Z,451.5833
2023-05-02T08:18:10.804Z,459.5000
2023-05-02T08:19:14.726Z,459.5000
2023-05-02T08:20:18.596Z,482.4167
2023-05-02T08:21:22.517Z,506.5000
2023-05-02T08:22:26.390Z,496.2500
2023-05-02T08:23:30.308Z,496.3333
2023-05-02T08:24:34.210Z,494.4167
2023-05-02T08:25:38.156Z,492.3333
2023-05-02T08:26:42.073Z,495.2500
2023-05-02T08:27:45.987Z,497.0000
2023-05-02T08:28:49.890Z,498.5833
2023-05-02T08:29:53.839Z,487.7500
2023-05-02T08:30:57.724Z,479.4167
2023-05-02T08:32:01.728Z,483.2500
2023-05-02T08:33:05.706Z,479.0000
2023-05-02T08:34:09.614Z,478.4167
2023-05-02T08:35:13.493Z,487.2500
2023-05-02T08:36:17.378Z,495.8333
2023-05-02T08:37:21.301Z,495.2500
2023-05-02T08:38:25.186Z,486.7500
2023-05-02T08:39:29.082Z,489.6667
2023-05-02T08:40:41.571Z,498.5833
2023-05-02T08:41:37.461Z,486.0000
2023-05-02T08:42:41.375Z,491.0000
2023-05-02T08:43:45.406Z,494.8333
2023-05-02T08:44:49.298Z,504.7500
2023-05-02T08:45:53.202Z,489.1667
2023-05-02T08:46:57.160Z,496.3333
2023-05-02T08:48:01.146Z,504.4167
2023-05-02T08:49:05.015Z,498.3333
2023-05-02T08:50:09.188Z,490.6667
2023-05-02T08:51:13.087Z,488.7500
2023-05-02T08:52:16.995Z,1156.8334
2023-05-02T08:53:20.927Z,1984.4166
2023-05-02T08:54:25.025Z,2252.1667
2023-05-02T08:55:28.946Z,2364.9167
2023-05-02T08:56:32.868Z,2371.9167
2023-05-02T08:57:37.097Z,2349.3333
2023-05-02T08:58:41.046Z,2333.9167
2023-05-02T08:59:44.910Z,2331.4167
2023-05-02T09:00:48.831Z,2345.3333
2023-05-02T09:01:52.723Z,2328.0000
2023-05-02T09:02:56.636Z,2332.5000
2023-05-02T09:04:00.609Z,2314.0833
2023-05-02T09:05:04.514Z,2308.7500
2023-05-02T09:06:08.432Z,2298.9167
2023-05-02T09:07:12.328Z,2299.5000
2023-05-02T09:08:16.213Z,2301.7500
2023-05-02T09:09:20.127Z,2317.4167
2023-05-02T09:10:24.039Z,2299.3333
2023-05-02T09:11:27.991Z,2296.6667
2023-05-02T09:12:32.087Z,2321.5000
2023-05-02T09:13:35.996Z,2315.5833
2023-05-02T09:14:39.875Z,2318.4167
2023-05-02T09:15:43.781Z,2317.4167
2023-05-02T09:16:47.793Z,2294.7500
2023-05-02T09:17:51.982Z,2273.7500
2023-05-02T09:18:55.918Z,2265.3333
2023-05-02T09:19:59.936Z,2265.6667
2023-05-02T09:21:03.849Z,2277.0000
2023-05-02T09:22:07.768Z,2285.8333
2023-05-02T09:23:11.682Z,2260.0000
2023-05-02T09:24:15.614Z,2235.5000
2023-05-02T09:25:19.753Z,2237.6667
2023-05-02T09:26:23.675Z,2234.3333
2023-05-02T09:27:27.532Z,2240.8333
2023-05-02T09:28:31.430Z,2274.2500
2023-05-02T09:29:35.349Z,2247.5000
2023-05-02T09:30:39.296Z,2217.0000
2023-05-02T09:31:55.616Z,2210.0000
2023-05-02T09:32:47.748Z,2211.4546
2023-05-02T09:33:51.640Z,2217.2500
2023-05-02T09:34:55.552Z,2212.1667
2023-05-02T09:35:59.438Z,2145.7500
2023-05-02T09:37:03.363Z,1810.6666
2023-05-02T09:38:07.231Z,1646.5834
2023-05-02T09:39:11.132Z,1599.0834
2023-05-02T09:40:15.065Z,1602.0834
2023-05-02T09:41:18.945Z,1603.5834
2023-05-02T09:42:22.858Z,1600.2500
2023-05-02T09:43:26.755Z,1592.2500
2023-05-02T09:44:30.752Z,1573.5834
2023-05-02T09:45:35.362Z,1594.0000
2023-05-02T09:46:39.404Z,1583.9166
2023-05-02T09:47:43.304Z,1568.5000
2023-05-02T09:48:47.162Z,1575.3334
2023-05-02T09:49:51.069Z,1576.2500
2023-05-02T09:50:54.989Z,1560.7500
2023-05-02T09:51:58.890Z,1558.6666
2023-05-02T09:53:02.928Z,1552.8334
2023-05-02T09:54:06.925Z,1553.6666
2023-05-02T09:55:10.789Z,1571.8334
2023-05-02T09:56:14.710Z,1572.6666
2023-05-02T09:57:18.643Z,1562.2500
2023-05-02T09:58:22.535Z,1542.3334
2023-05-02T09:59:26.425Z,1561.3334
2023-05-02T10:00:30.347Z,1568.0834
2023-05-02T10:01:34.269Z,1600.4166
2023-05-02T10:02:38.258Z,1565.4166
2023-05-02T10:03:42.187Z,1543.5000
2023-05-02T10:04:46.144Z,1535.5000
2023-05-02T10:05:50.071Z,1531.5000
2023-05-02T10:06:53.978Z,1534.6666
2023-05-02T10:07:57.893Z,1548.2500
2023-05-02T10:09:01.817Z,1574.5000
2023-05-02T10:10:05.733Z,1579.1666
2023-05-02T10:11:09.633Z,1544.6666
2023-05-02T10:12:13.564Z,1539.4166
2023-05-02T10:13:17.475Z,1523.5000
2023-05-02T10:14:21.491Z,1527.7500
2023-05-02T10:15:25.374Z,1533.8334
2023-05-02T10:16:29.290Z,1532.9166
2023-05-02T10:17:33.550Z,1504.6666
2023-05-02T10:18:37.458Z,1504.9166
2023-05-02T10:19:41.370Z,1523.1666
2023-05-02T10:20:45.257Z,1516.9166
2023-05-02T10:21:49.178Z,1542.4166
2023-05-02T10:22:53.100Z,1507.3334
2023-05-02T10:23:56.993Z,1496.8334
2023-05-02T10:25:01.201Z,1510.6666
2023-05-02T10:26:05.365Z,1497.5000
2023-05-02T10:27:09.295Z,1492.6666
2023-05-02T10:28:13.194Z,1504.5000
2023-05-02T10:29:17.145Z,1499.8334
2023-05-02T10:30:21.039Z,1480.7500
2023-05-02T10:31:24.960Z,1499.0834
2023-05-02T10:32:29.219Z,1501.9166
2023-05-02T10:33:33.125Z,1507.8334
2023-05-02T10:34:36.988Z,1513.3334
2023-05-02T10:35:40.959Z,1502.6666
2023-05-02T10:36:44.826Z,1478.1666
2023-05-02T10:37:48.896Z,1476.6666
2023-05-02T10:38:52.792Z,1482.4166
2023-05-02T10:39:56.693Z,1486.6666
2023-05-02T10:41:00.576Z,1486.8334
2023-05-02T10:42:04.488Z,1479.0000
2023-05-02T10:43:08.414Z,1463.0000
2023-05-02T10:44:12.323Z,1465.0000
2023-05-02T10:45:16.234Z,1463.8334
2023-05-02T10:46:20.189Z,1461.5000
2023-05-02T10:47:24.152Z,1473.5000
2023-05-02T10:48:28.104Z,1477.4166
2023-05-02T10:49:32.029Z,1447.7500
2023-05-02T10:50:36.138Z,1454.5000
2023-05-02T10:51:40.044Z,1463.0000
2023-05-02T10:52:43.951Z,1453.7500
2023-05-02T10:53:47.893Z,1467.2500
2023-05-02T10:54:51.810Z,1459.1666
2023-05-02T10:55:55.717Z,1457.2500
2023-05-02T10:56:59.625Z,1461.8334
2023-05-02T10:58:03.529Z,1449.8334
2023-05-02T10:59:07.435Z,1444.4166
2023-05-02T11:00:07.632Z,1453.9091
2023-05-02T11:01:11.587Z,1446.3334
2023-05-02T11:02:15.708Z,1443.0834
2023-05-02T11:03:19.642Z,1425.2500
2023-05-02T11:04:23.532Z,1442.0000
2023-05-02T11:05:27.399Z,1437.6666
2023-05-02T11:06:31.323Z,1442.1666
2023-05-02T11:07:35.234Z,1440.5834
2023-05-02T11:08:39.167Z,1433.1666
2023-05-02T11:09:43.056Z,1414.1666
2023-05-02T11:10:46.986Z,1447.6666
2023-05-02T11:11:50.899Z,1453.8334
2023-05-02T11:12:54.797Z,1436.7500
2023-05-02T11:13:58.698Z,1415.8334
2023-05-02T11:15:02.790Z,1421.8334
2023-05-02T11:16:06.920Z,1405.8334
2023-05-02T11:17:10.786Z,1413.0834
2023-05-02T11:18:14.811Z,1423.7500
2023-05-02T11:19:18.678Z,1422.5834
2023-05-02T11:20:22.549Z,1421.4166
2023-05-02T11:21:26.442Z,1418.5834
2023-05-02T11:22:30.350Z,1409.1666
2023-05-02T11:23:34.219Z,1398.0834
2023-05-02T11:24:38.142Z,1385.9166
2023-05-02T11:25:42.098Z,1395.5834
2023-05-02T11:26:45.978Z,1405.2500
2023-05-02T11:27:49.917Z,1397.5000
2023-05-02T11:28:53.809Z,1385.8334
2023-05-02T11:29:57.723Z,1379.3334
2023-05-02T11:31:01.614Z,1375.3334
2023-05-02T11:32:05.554Z,1382.7500
2023-05-02T11:33:09.470Z,1397.3334
2023-05-02T11:34:13.333Z,1399.9166
2023-05-02T11:35:17.228Z,1395.7500
2023-05-02T11:36:21.147Z,1389.4166
2023-05-02T11:37:25.049Z,1380.1666
2023-05-02T11:38:28.992Z,1376.0834
2023-05-02T11:39:32.890Z,1381.2500
2023-05-02T11:40:36.799Z,1397.7500
2023-05-02T11:41:40.724Z,1389.7500
2023-05-02T11:42:44.632Z,1373.0000
2023-05-02T11:43:48.542Z,1348.8334
2023-05-02T11:44:52.461Z,1352.9166
2023-05-02T11:45:56.463Z,1358.8334
2023-05-02T11:47:00.385Z,1362.1666
2023-05-02T11:48:04.349Z,1353.1666
2023-05-02T11:49:09.334Z,1344.9166
2023-05-02T11:50:08.754Z,1358.5454
2023-05-02T11:51:12.680Z,1355.4166
2023-05-02T11:52:16.607Z,1365.8334
2023-05-02T11:53:20.512Z,1373.4166
2023-05-02T11:54:24.434Z,1370.6666
2023-05-02T11:55:28.580Z,1339.8334
2023-05-02T11:56:32.467Z,1331.0834
2023-05-02T11:57:36.437Z,1361.2500
2023-05-02T11:58:40.347Z,1357.7500
2023-05-02T11:59:44.259Z,1363.0000
2023-05-02T12:00:48.179Z,1361.4166
2023-05-02T12:01:52.086Z,1331.6666
2023-05-02T12:02:56.186Z,1332.6666
2023-05-02T12:04:00.140Z,1340.1666
2023-05-02T12:05:04.331Z,1341.7500
2023-05-02T12:06:08.516Z,1332.4166
2023-05-02T12:07:12.523Z,1347.5000
2023-05-02T12:08:16.397Z,1323.0834
2023-05-02T12:09:20.299Z,1309.8334
2023-05-02T12:10:24.190Z,1318.9166
2023-05-02T12:11:28.060Z,1324.0000
2023-05-02T12:12:31.975Z,1342.6666
2023-05-02T12:13:35.896Z,1355.8334
2023-05-02T12:14:39.802Z,1335.9166
2023-05-02T12:15:43.737Z,1314.2500
2023-05-02T12:16:47.833Z,1316.0834
2023-05-02T12:17:51.834Z,1319.4166
2023-05-02T12:18:55.715Z,1307.9166